LGTSLDDU

Guest
Details From LGTS - Thessalonik Makedonia
To LDDU - Dubrovnik
Flight Number -
Tags Generated
Created
Modified
Stats Distance 245 nm / 454 km
Max Altitude 0 ft / 0 m
Waypoints 3
Social Downloads 1
Likes 0
Share VATSIM

Download

Looking for another format? Having issues loading an existing format? Contact us
Advertisement - Login to hide

Notes

Generated

Route

LGTS R2155 LDDU

ID Type Via Altitude Latitude Longitude Leg Dist Tot Dist Heading (true) Name
O LGTS APT - 0 ft / 0 m 40.52196˚ 22.95907˚ - 0 nm - -
R2155 FIX - 0 ft / 0 m 42.56923˚ 18.24840˚ 244 nm 244 nm 302° / 299° -
O LDDU APT - 0 ft / 0 m 42.56986˚ 18.24681˚ 0 nm 244 nm 298° / 298° -

Altitude Profile

Advertisement - Login to hide

Weather


0- 5 10 15 20 25 30 35+ Temperature / ° C

Clouds and Precipitation
Forecast for 2017-12-18 06:00 UTC. Updated 34 minutes ago

Ground ~20,000 ft ~40,000 ft Winds

LGTS

Details ICAO LGTS (SKG)
Name Thessalonik Makedonia
Region Greece
Timezone Europe/Athens (UTC+2.0)
Stats Elevation 22 ft / 7 m (AMSL)
Location 40.519522° 22.972017°
Runways 2
Magnetic Variation 4.623° E

METAR

LGTS 180320Z VRB03KT 9999 FEW025 04/M02 Q1016 NOSIG

Decode

TAF

TAF TAF LGTS 172300Z 1800/1824 35012KT 9999 FEW030 BECMG 1806/1808 FEW020 BKN025 TEMPO 1809/1818 5000 RA BECMG 1818/1820 34012G22KT CAVOK TEMPO 1820/1824 34022G32KT

Decode

Departure Runways

ID Width Length Bearing (true) Bearing (mag) Surface Threshold Offset Overrun Length
10 164 ft / 50 m 7,990 ft / 2,435 m 103.95° 99.33° Asphalt 0 ft / 0 m 150 ft / 46 m
16 197 ft / 60 m 7,927 ft / 2,416 m 166.35° 161.73° Asphalt 0 ft / 0 m 200 ft / 61 m
28 164 ft / 50 m 7,990 ft / 2,435 m 283.97° 279.35° Asphalt 0 ft / 0 m 150 ft / 46 m
34 197 ft / 60 m 7,927 ft / 2,416 m 346.36° 341.74° Asphalt 0 ft / 0 m 200 ft / 61 m

LDDU

Details ICAO LDDU (DBV)
Name DUBROVNIK
Region Croatia
Timezone Europe/Zagreb (UTC+1.0)
Stats Elevation 527 ft / 161 m (AMSL)
Location 42.562840° 18.264499°
Runways 1
Magnetic Variation 4.101° E

METAR

LDDU 180330Z 03021KT CAVOK 05/M06 Q1016 NOSIG

Decode

TAF

TAF LDDU 172325Z 1800/1900 02023KT 9999 SCT045 TX08/1812Z TN02/1823Z PROB30 TEMPO 1800/1807 02025G35KT BECMG 1808/1810 02010KT BECMG 1816/1818 02023KT PROB30 TEMPO 1820/1900 02025G35KT

Decode

Destination Runways

ID Width Length Bearing (true) Bearing (mag) Surface Threshold Offset Overrun Length
12 148 ft / 45 m 10,803 ft / 3,293 m 118.30° 114.20° Asphalt 488 ft / 149 m 100 ft / 30 m
30 148 ft / 45 m 10,803 ft / 3,293 m 298.33° 294.23° Asphalt 0 ft / 0 m 100 ft / 30 m

Approach Navaids

Runway Type Ident Frequency Range Bearing (true) Bearing (mag) Slope Elevation
12 Localiser IDU 110.10 MHz 25 nm / 46 km 118.21° 114.11° - 469 ft / 143 m (AMSL)
12 Glidescope IDU 110.10 MHz 25 nm / 46 km 118.21° 114.11° 3.00° 502 ft / 153 m (AMSL)

Popular Alternatives